sensor_id;sensor_type;location;lat;lon;timestamp;P1;durP1;ratioP1;P2;durP2;ratioP2
42332;SDS011;27984;51.476;5.702;2024-01-30T00:01:50;20.02;;;12.02;;
42332;SDS011;27984;51.476;5.702;2024-01-30T00:04:16;17.33;;;12.07;;
42332;SDS011;27984;51.476;5.702;2024-01-30T00:06:43;16.25;;;11.32;;
42332;SDS011;27984;51.476;5.702;2024-01-30T00:09:09;19.38;;;11.80;;
42332;SDS011;27984;51.476;5.702;2024-01-30T00:11:35;18.25;;;11.82;;
42332;SDS011;27984;51.476;5.702;2024-01-30T00:14:01;17.08;;;11.70;;
42332;SDS011;27984;51.476;5.702;2024-01-30T00:16:28;17.17;;;11.88;;
42332;SDS011;27984;51.476;5.702;2024-01-30T00:18:54;16.88;;;11.95;;
42332;SDS011;27984;51.476;5.702;2024-01-30T00:21:20;18.77;;;11.82;;
42332;SDS011;27984;51.476;5.702;2024-01-30T00:23:47;17.17;;;12.15;;
42332;SDS011;27984;51.476;5.702;2024-01-30T00:26:13;17.85;;;12.70;;
42332;SDS011;27984;51.476;5.702;2024-01-30T00:28:42;17.35;;;11.70;;
42332;SDS011;27984;51.476;5.702;2024-01-30T00:31:08;21.10;;;12.65;;
42332;SDS011;27984;51.476;5.702;2024-01-30T00:33:40;18.13;;;12.75;;
42332;SDS011;27984;51.476;5.702;2024-01-30T00:36:07;18.85;;;13.10;;
42332;SDS011;27984;51.476;5.702;2024-01-30T00:38:33;19.38;;;13.40;;
42332;SDS011;27984;51.476;5.702;2024-01-30T00:40:59;18.33;;;12.63;;
42332;SDS011;27984;51.476;5.702;2024-01-30T00:43:27;19.77;;;12.60;;
42332;SDS011;27984;51.476;5.702;2024-01-30T00:45:53;18.85;;;13.02;;
42332;SDS011;27984;51.476;5.702;2024-01-30T00:48:19;17.38;;;13.18;;
42332;SDS011;27984;51.476;5.702;2024-01-30T00:50:45;20.13;;;13.25;;
42332;SDS011;27984;51.476;5.702;2024-01-30T00:53:11;19.30;;;12.75;;
42332;SDS011;27984;51.476;5.702;2024-01-30T00:55:37;18.45;;;13.52;;
42332;SDS011;27984;51.476;5.702;2024-01-30T00:58:03;22.55;;;14.27;;
42332;SDS011;27984;51.476;5.702;2024-01-30T01:00:29;18.23;;;13.18;;
42332;SDS011;27984;51.476;5.702;2024-01-30T01:02:57;21.45;;;13.75;;
42332;SDS011;27984;51.476;5.702;2024-01-30T01:05:22;28.27;;;14.75;;
42332;SDS011;27984;51.476;5.702;2024-01-30T01:07:48;24.33;;;14.55;;
42332;SDS011;27984;51.476;5.702;2024-01-30T01:10:15;19.20;;;13.73;;
42332;SDS011;27984;51.476;5.702;2024-01-30T01:12:41;21.90;;;14.52;;
42332;SDS011;27984;51.476;5.702;2024-01-30T01:15:07;23.48;;;14.52;;
42332;SDS011;27984;51.476;5.702;2024-01-30T01:17:35;21.83;;;13.95;;
42332;SDS011;27984;51.476;5.702;2024-01-30T01:20:01;24.23;;;14.63;;
42332;SDS011;27984;51.476;5.702;2024-01-30T01:22:27;22.40;;;15.23;;
42332;SDS011;27984;51.476;5.702;2024-01-30T01:24:53;22.50;;;15.23;;
42332;SDS011;27984;51.476;5.702;2024-01-30T01:27:19;23.73;;;14.65;;
42332;SDS011;27984;51.476;5.702;2024-01-30T01:29:46;21.48;;;14.70;;
42332;SDS011;27984;51.476;5.702;2024-01-30T01:32:12;22.55;;;14.93;;
42332;SDS011;27984;51.476;5.702;2024-01-30T01:34:38;20.67;;;13.88;;
42332;SDS011;27984;51.476;5.702;2024-01-30T01:37:04;22.17;;;14.77;;
42332;SDS011;27984;51.476;5.702;2024-01-30T01:39:30;20.13;;;14.18;;
42332;SDS011;27984;51.476;5.702;2024-01-30T01:41:56;20.88;;;14.65;;
42332;SDS011;27984;51.476;5.702;2024-01-30T01:44:22;23.50;;;14.95;;
42332;SDS011;27984;51.476;5.702;2024-01-30T01:46:48;21.98;;;14.73;;
42332;SDS011;27984;51.476;5.702;2024-01-30T01:49:14;22.10;;;14.38;;
42332;SDS011;27984;51.476;5.702;2024-01-30T01:51:40;21.17;;;13.95;;
42332;SDS011;27984;51.476;5.702;2024-01-30T01:54:07;21.85;;;14.30;;
42332;SDS011;27984;51.476;5.702;2024-01-30T01:56:33;22.80;;;14.63;;
42332;SDS011;27984;51.476;5.702;2024-01-30T01:59:00;24.20;;;14.50;;
42332;SDS011;27984;51.476;5.702;2024-01-30T02:01:26;20.73;;;14.32;;
42332;SDS011;27984;51.476;5.702;2024-01-30T02:03:53;19.55;;;14.02;;
42332;SDS011;27984;51.476;5.702;2024-01-30T02:06:19;21.42;;;14.80;;
42332;SDS011;27984;51.476;5.702;2024-01-30T02:08:45;22.85;;;14.93;;
42332;SDS011;27984;51.476;5.702;2024-01-30T02:11:11;21.67;;;14.38;;
42332;SDS011;27984;51.476;5.702;2024-01-30T02:13:38;21.63;;;14.77;;
42332;SDS011;27984;51.476;5.702;2024-01-30T02:16:04;24.58;;;14.73;;
42332;SDS011;27984;51.476;5.702;2024-01-30T02:18:30;23.23;;;14.90;;
42332;SDS011;27984;51.476;5.702;2024-01-30T02:20:56;22.63;;;14.00;;
42332;SDS011;27984;51.476;5.702;2024-01-30T02:23:26;18.52;;;13.45;;
42332;SDS011;27984;51.476;5.702;2024-01-30T02:25:52;22.13;;;14.00;;
42332;SDS011;27984;51.476;5.702;2024-01-30T02:28:19;21.73;;;14.45;;
42332;SDS011;27984;51.476;5.702;2024-01-30T02:30:46;18.73;;;13.20;;
42332;SDS011;27984;51.476;5.702;2024-01-30T02:33:12;19.42;;;13.52;;
42332;SDS011;27984;51.476;5.702;2024-01-30T02:35:38;20.83;;;14.02;;
42332;SDS011;27984;51.476;5.702;2024-01-30T02:38:04;20.30;;;12.93;;
42332;SDS011;27984;51.476;5.702;2024-01-30T02:40:31;18.33;;;13.55;;
42332;SDS011;27984;51.476;5.702;2024-01-30T02:42:58;23.42;;;14.90;;
42332;SDS011;27984;51.476;5.702;2024-01-30T02:45:24;22.73;;;14.15;;
42332;SDS011;27984;51.476;5.702;2024-01-30T02:47:50;22.13;;;13.52;;
42332;SDS011;27984;51.476;5.702;2024-01-30T02:50:16;24.77;;;14.63;;
42332;SDS011;27984;51.476;5.702;2024-01-30T02:52:42;20.42;;;14.13;;
42332;SDS011;27984;51.476;5.702;2024-01-30T02:55:11;18.33;;;14.02;;
42332;SDS011;27984;51.476;5.702;2024-01-30T02:57:37;21.52;;;14.55;;
42332;SDS011;27984;51.476;5.702;2024-01-30T03:00:04;19.45;;;13.90;;
42332;SDS011;27984;51.476;5.702;2024-01-30T03:02:31;22.58;;;14.70;;
42332;SDS011;27984;51.476;5.702;2024-01-30T03:04:57;22.58;;;13.95;;
42332;SDS011;27984;51.476;5.702;2024-01-30T03:07:23;23.98;;;14.20;;
42332;SDS011;27984;51.476;5.702;2024-01-30T03:09:49;23.13;;;14.00;;
42332;SDS011;27984;51.476;5.702;2024-01-30T03:12:15;19.17;;;13.95;;
42332;SDS011;27984;51.476;5.702;2024-01-30T03:14:41;22.88;;;14.10;;
42332;SDS011;27984;51.476;5.702;2024-01-30T03:17:07;20.17;;;13.05;;
42332;SDS011;27984;51.476;5.702;2024-01-30T03:19:33;18.67;;;13.27;;
42332;SDS011;27984;51.476;5.702;2024-01-30T03:21:59;20.33;;;13.90;;
42332;SDS011;27984;51.476;5.702;2024-01-30T03:24:25;20.17;;;13.77;;
42332;SDS011;27984;51.476;5.702;2024-01-30T03:26:51;20.27;;;12.65;;
42332;SDS011;27984;51.476;5.702;2024-01-30T03:29:17;18.48;;;12.93;;
42332;SDS011;27984;51.476;5.702;2024-01-30T03:31:43;16.90;;;12.40;;
42332;SDS011;27984;51.476;5.702;2024-01-30T03:34:09;21.27;;;12.93;;
42332;SDS011;27984;51.476;5.702;2024-01-30T03:36:34;19.98;;;13.15;;
42332;SDS011;27984;51.476;5.702;2024-01-30T03:39:01;16.40;;;12.13;;
42332;SDS011;27984;51.476;5.702;2024-01-30T03:41:27;20.50;;;13.00;;
42332;SDS011;27984;51.476;5.702;2024-01-30T03:43:53;18.98;;;13.00;;
42332;SDS011;27984;51.476;5.702;2024-01-30T03:46:19;17.40;;;11.60;;
42332;SDS011;27984;51.476;5.702;2024-01-30T03:48:45;21.70;;;12.10;;
42332;SDS011;27984;51.476;5.702;2024-01-30T03:51:11;20.10;;;12.27;;
42332;SDS011;27984;51.476;5.702;2024-01-30T03:53:43;19.83;;;11.82;;
42332;SDS011;27984;51.476;5.702;2024-01-30T03:56:11;20.13;;;12.48;;
42332;SDS011;27984;51.476;5.702;2024-01-30T03:58:38;18.65;;;11.48;;
42332;SDS011;27984;51.476;5.702;2024-01-30T04:01:04;16.92;;;12.45;;
42332;SDS011;27984;51.476;5.702;2024-01-30T04:03:30;18.15;;;11.80;;
42332;SDS011;27984;51.476;5.702;2024-01-30T04:05:56;16.65;;;11.63;;
42332;SDS011;27984;51.476;5.702;2024-01-30T04:08:22;16.13;;;11.27;;
42332;SDS011;27984;51.476;5.702;2024-01-30T04:10:48;15.80;;;10.80;;
42332;SDS011;27984;51.476;5.702;2024-01-30T04:13:14;18.58;;;11.50;;
42332;SDS011;27984;51.476;5.702;2024-01-30T04:15:40;16.85;;;11.30;;
42332;SDS011;27984;51.476;5.702;2024-01-30T04:18:06;17.50;;;11.57;;
42332;SDS011;27984;51.476;5.702;2024-01-30T04:20:32;17.25;;;11.38;;
42332;SDS011;27984;51.476;5.702;2024-01-30T04:22:58;16.48;;;11.50;;
42332;SDS011;27984;51.476;5.702;2024-01-30T04:25:24;16.02;;;11.35;;
42332;SDS011;27984;51.476;5.702;2024-01-30T04:27:50;17.88;;;11.30;;
42332;SDS011;27984;51.476;5.702;2024-01-30T04:30:16;16.55;;;11.45;;
42332;SDS011;27984;51.476;5.702;2024-01-30T04:32:42;16.27;;;10.77;;
42332;SDS011;27984;51.476;5.702;2024-01-30T04:35:08;14.55;;;10.52;;
42332;SDS011;27984;51.476;5.702;2024-01-30T04:37:34;16.13;;;11.25;;
42332;SDS011;27984;51.476;5.702;2024-01-30T04:40:00;17.92;;;11.40;;
42332;SDS011;27984;51.476;5.702;2024-01-30T04:42:27;15.43;;;10.60;;
42332;SDS011;27984;51.476;5.702;2024-01-30T04:44:53;14.50;;;10.38;;
42332;SDS011;27984;51.476;5.702;2024-01-30T04:47:19;14.38;;;10.55;;
42332;SDS011;27984;51.476;5.702;2024-01-30T04:49:46;16.27;;;10.23;;
42332;SDS011;27984;51.476;5.702;2024-01-30T04:52:12;17.15;;;10.82;;
42332;SDS011;27984;51.476;5.702;2024-01-30T04:54:38;15.10;;;11.25;;
42332;SDS011;27984;51.476;5.702;2024-01-30T04:57:04;17.45;;;10.93;;
42332;SDS011;27984;51.476;5.702;2024-01-30T04:59:34;16.83;;;12.00;;
42332;SDS011;27984;51.476;5.702;2024-01-30T05:02:00;21.25;;;12.27;;
42332;SDS011;27984;51.476;5.702;2024-01-30T05:04:26;18.85;;;12.05;;
42332;SDS011;27984;51.476;5.702;2024-01-30T05:06:52;17.10;;;11.10;;
42332;SDS011;27984;51.476;5.702;2024-01-30T05:09:18;16.08;;;11.10;;
42332;SDS011;27984;51.476;5.702;2024-01-30T05:11:44;14.32;;;10.48;;
42332;SDS011;27984;51.476;5.702;2024-01-30T05:14:10;15.73;;;9.88;;
42332;SDS011;27984;51.476;5.702;2024-01-30T05:16:37;13.25;;;9.57;;
42332;SDS011;27984;51.476;5.702;2024-01-30T05:19:03;12.13;;;9.70;;
42332;SDS011;27984;51.476;5.702;2024-01-30T05:21:29;12.05;;;9.80;;
42332;SDS011;27984;51.476;5.702;2024-01-30T05:23:55;13.85;;;9.55;;
42332;SDS011;27984;51.476;5.702;2024-01-30T05:26:21;14.90;;;10.05;;
42332;SDS011;27984;51.476;5.702;2024-01-30T05:28:48;13.90;;;10.00;;
42332;SDS011;27984;51.476;5.702;2024-01-30T05:31:14;13.25;;;9.85;;
42332;SDS011;27984;51.476;5.702;2024-01-30T05:33:40;15.13;;;9.77;;
42332;SDS011;27984;51.476;5.702;2024-01-30T05:36:06;12.70;;;9.48;;
42332;SDS011;27984;51.476;5.702;2024-01-30T05:38:32;16.02;;;9.85;;
42332;SDS011;27984;51.476;5.702;2024-01-30T05:40:58;15.57;;;10.50;;
42332;SDS011;27984;51.476;5.702;2024-01-30T05:43:24;12.60;;;10.05;;
42332;SDS011;27984;51.476;5.702;2024-01-30T05:45:50;18.67;;;10.40;;
42332;SDS011;27984;51.476;5.702;2024-01-30T05:48:18;13.80;;;9.90;;
42332;SDS011;27984;51.476;5.702;2024-01-30T05:50:44;14.25;;;10.35;;
42332;SDS011;27984;51.476;5.702;2024-01-30T05:53:10;15.52;;;10.25;;
42332;SDS011;27984;51.476;5.702;2024-01-30T05:55:36;17.83;;;10.80;;
42332;SDS011;27984;51.476;5.702;2024-01-30T05:58:02;19.02;;;10.55;;
42332;SDS011;27984;51.476;5.702;2024-01-30T06:00:28;17.95;;;10.57;;
42332;SDS011;27984;51.476;5.702;2024-01-30T06:02:54;15.63;;;10.05;;
42332;SDS011;27984;51.476;5.702;2024-01-30T06:05:20;14.45;;;9.85;;
42332;SDS011;27984;51.476;5.702;2024-01-30T06:07:46;13.80;;;9.68;;
42332;SDS011;27984;51.476;5.702;2024-01-30T06:10:12;16.27;;;10.55;;
42332;SDS011;27984;51.476;5.702;2024-01-30T06:12:39;14.82;;;10.05;;
42332;SDS011;27984;51.476;5.702;2024-01-30T06:15:05;20.05;;;10.80;;
42332;SDS011;27984;51.476;5.702;2024-01-30T06:17:31;15.48;;;10.63;;
42332;SDS011;27984;51.476;5.702;2024-01-30T06:19:57;18.88;;;10.63;;
42332;SDS011;27984;51.476;5.702;2024-01-30T06:22:24;16.30;;;10.82;;
42332;SDS011;27984;51.476;5.702;2024-01-30T06:24:50;17.15;;;11.32;;
42332;SDS011;27984;51.476;5.702;2024-01-30T06:27:16;15.25;;;10.48;;
42332;SDS011;27984;51.476;5.702;2024-01-30T06:29:45;14.18;;;9.75;;
42332;SDS011;27984;51.476;5.702;2024-01-30T06:32:11;18.70;;;10.98;;
42332;SDS011;27984;51.476;5.702;2024-01-30T06:34:37;15.00;;;10.60;;
42332;SDS011;27984;51.476;5.702;2024-01-30T06:37:05;16.05;;;10.43;;
42332;SDS011;27984;51.476;5.702;2024-01-30T06:39:31;15.63;;;10.85;;
42332;SDS011;27984;51.476;5.702;2024-01-30T06:41:57;17.98;;;11.45;;
42332;SDS011;27984;51.476;5.702;2024-01-30T06:44:23;16.23;;;11.73;;
42332;SDS011;27984;51.476;5.702;2024-01-30T06:46:49;20.00;;;11.27;;
42332;SDS011;27984;51.476;5.702;2024-01-30T06:49:15;20.35;;;10.73;;
42332;SDS011;27984;51.476;5.702;2024-01-30T06:51:41;15.10;;;9.82;;
42332;SDS011;27984;51.476;5.702;2024-01-30T06:54:06;15.57;;;10.68;;
42332;SDS011;27984;51.476;5.702;2024-01-30T06:56:33;14.98;;;10.70;;
42332;SDS011;27984;51.476;5.702;2024-01-30T06:58:59;13.35;;;9.75;;
42332;SDS011;27984;51.476;5.702;2024-01-30T07:01:29;14.85;;;9.77;;
42332;SDS011;27984;51.476;5.702;2024-01-30T07:03:55;10.38;;;8.60;;
42332;SDS011;27984;51.476;5.702;2024-01-30T07:06:21;13.32;;;9.38;;
42332;SDS011;27984;51.476;5.702;2024-01-30T07:08:49;14.63;;;9.18;;
42332;SDS011;27984;51.476;5.702;2024-01-30T07:11:21;14.63;;;9.27;;
42332;SDS011;27984;51.476;5.702;2024-01-30T07:13:48;13.73;;;8.70;;
42332;SDS011;27984;51.476;5.702;2024-01-30T07:16:15;12.63;;;8.02;;
42332;SDS011;27984;51.476;5.702;2024-01-30T07:18:41;14.73;;;8.48;;
42332;SDS011;27984;51.476;5.702;2024-01-30T07:21:07;13.90;;;8.05;;
42332;SDS011;27984;51.476;5.702;2024-01-30T07:23:33;10.23;;;7.72;;
42332;SDS011;27984;51.476;5.702;2024-01-30T07:25:59;14.18;;;7.47;;
42332;SDS011;27984;51.476;5.702;2024-01-30T07:28:25;9.95;;;7.72;;
42332;SDS011;27984;51.476;5.702;2024-01-30T07:30:51;11.30;;;8.00;;
42332;SDS011;27984;51.476;5.702;2024-01-30T07:33:17;16.48;;;7.60;;
42332;SDS011;27984;51.476;5.702;2024-01-30T07:35:44;11.70;;;7.55;;
42332;SDS011;27984;51.476;5.702;2024-01-30T07:38:10;11.38;;;7.38;;
42332;SDS011;27984;51.476;5.702;2024-01-30T07:40:36;14.32;;;7.45;;
42332;SDS011;27984;51.476;5.702;2024-01-30T07:43:03;10.57;;;6.93;;
42332;SDS011;27984;51.476;5.702;2024-01-30T07:45:30;10.68;;;7.00;;
42332;SDS011;27984;51.476;5.702;2024-01-30T07:47:59;9.30;;;6.90;;
42332;SDS011;27984;51.476;5.702;2024-01-30T07:50:25;13.90;;;7.28;;
42332;SDS011;27984;51.476;5.702;2024-01-30T07:52:51;11.18;;;7.15;;
42332;SDS011;27984;51.476;5.702;2024-01-30T07:55:20;10.88;;;6.68;;
42332;SDS011;27984;51.476;5.702;2024-01-30T07:57:49;12.13;;;7.30;;
42332;SDS011;27984;51.476;5.702;2024-01-30T08:00:15;10.27;;;6.38;;
42332;SDS011;27984;51.476;5.702;2024-01-30T08:02:41;11.52;;;6.70;;
42332;SDS011;27984;51.476;5.702;2024-01-30T08:05:07;9.73;;;6.70;;
42332;SDS011;27984;51.476;5.702;2024-01-30T08:07:36;9.52;;;6.50;;
42332;SDS011;27984;51.476;5.702;2024-01-30T08:10:02;11.38;;;7.15;;
42332;SDS011;27984;51.476;5.702;2024-01-30T08:12:28;11.55;;;6.90;;
42332;SDS011;27984;51.476;5.702;2024-01-30T08:14:54;10.25;;;6.97;;
42332;SDS011;27984;51.476;5.702;2024-01-30T08:17:20;11.52;;;7.32;;
42332;SDS011;27984;51.476;5.702;2024-01-30T08:19:46;12.20;;;7.47;;
42332;SDS011;27984;51.476;5.702;2024-01-30T08:22:12;10.07;;;7.15;;
42332;SDS011;27984;51.476;5.702;2024-01-30T08:24:38;10.70;;;6.78;;
42332;SDS011;27984;51.476;5.702;2024-01-30T08:27:05;9.50;;;7.03;;
42332;SDS011;27984;51.476;5.702;2024-01-30T08:29:31;9.32;;;6.60;;
42332;SDS011;27984;51.476;5.702;2024-01-30T08:31:57;12.32;;;6.72;;
42332;SDS011;27984;51.476;5.702;2024-01-30T08:34:24;8.25;;;6.50;;
42332;SDS011;27984;51.476;5.702;2024-01-30T08:36:50;13.60;;;7.28;;
42332;SDS011;27984;51.476;5.702;2024-01-30T08:39:16;9.65;;;7.00;;
42332;SDS011;27984;51.476;5.702;2024-01-30T08:41:42;9.48;;;6.45;;
42332;SDS011;27984;51.476;5.702;2024-01-30T08:44:08;14.13;;;7.18;;
42332;SDS011;27984;51.476;5.702;2024-01-30T08:46:36;10.02;;;6.45;;
42332;SDS011;27984;51.476;5.702;2024-01-30T08:49:02;8.05;;;6.57;;
42332;SDS011;27984;51.476;5.702;2024-01-30T08:51:29;12.10;;;7.15;;
42332;SDS011;27984;51.476;5.702;2024-01-30T08:53:55;11.90;;;6.90;;
42332;SDS011;27984;51.476;5.702;2024-01-30T08:56:21;10.30;;;7.20;;
42332;SDS011;27984;51.476;5.702;2024-01-30T08:58:47;8.35;;;6.20;;
42332;SDS011;27984;51.476;5.702;2024-01-30T09:01:13;9.68;;;6.63;;
42332;SDS011;27984;51.476;5.702;2024-01-30T09:03:39;12.68;;;7.00;;
42332;SDS011;27984;51.476;5.702;2024-01-30T09:06:08;9.30;;;6.93;;
42332;SDS011;27984;51.476;5.702;2024-01-30T09:08:34;8.23;;;6.40;;
42332;SDS011;27984;51.476;5.702;2024-01-30T09:11:00;10.82;;;6.53;;
42332;SDS011;27984;51.476;5.702;2024-01-30T09:13:26;12.57;;;7.18;;
42332;SDS011;27984;51.476;5.702;2024-01-30T09:15:52;13.50;;;6.75;;
42332;SDS011;27984;51.476;5.702;2024-01-30T09:18:20;10.88;;;6.88;;
42332;SDS011;27984;51.476;5.702;2024-01-30T09:20:47;8.90;;;6.55;;
42332;SDS011;27984;51.476;5.702;2024-01-30T09:23:13;15.25;;;7.18;;
42332;SDS011;27984;51.476;5.702;2024-01-30T09:25:40;8.43;;;6.47;;
42332;SDS011;27984;51.476;5.702;2024-01-30T09:28:06;12.65;;;6.70;;
42332;SDS011;27984;51.476;5.702;2024-01-30T09:30:32;10.88;;;6.93;;
42332;SDS011;27984;51.476;5.702;2024-01-30T09:32:57;13.90;;;7.25;;
42332;SDS011;27984;51.476;5.702;2024-01-30T09:35:23;11.38;;;6.72;;
42332;SDS011;27984;51.476;5.702;2024-01-30T09:37:49;13.93;;;7.07;;
42332;SDS011;27984;51.476;5.702;2024-01-30T09:40:17;10.60;;;6.90;;
42332;SDS011;27984;51.476;5.702;2024-01-30T09:42:44;12.50;;;7.18;;
42332;SDS011;27984;51.476;5.702;2024-01-30T09:45:13;10.70;;;7.38;;
42332;SDS011;27984;51.476;5.702;2024-01-30T09:47:40;13.52;;;7.28;;
42332;SDS011;27984;51.476;5.702;2024-01-30T09:50:09;17.48;;;7.80;;
42332;SDS011;27984;51.476;5.702;2024-01-30T09:52:36;10.35;;;7.47;;
42332;SDS011;27984;51.476;5.702;2024-01-30T09:55:02;12.23;;;7.60;;
42332;SDS011;27984;51.476;5.702;2024-01-30T09:57:28;14.68;;;7.55;;
42332;SDS011;27984;51.476;5.702;2024-01-30T09:59:54;13.35;;;7.57;;
42332;SDS011;27984;51.476;5.702;2024-01-30T10:02:21;13.15;;;7.70;;
42332;SDS011;27984;51.476;5.702;2024-01-30T10:04:50;13.32;;;7.75;;
42332;SDS011;27984;51.476;5.702;2024-01-30T10:07:20;15.35;;;7.60;;
42332;SDS011;27984;51.476;5.702;2024-01-30T10:09:46;13.10;;;7.40;;
42332;SDS011;27984;51.476;5.702;2024-01-30T10:12:12;13.63;;;7.90;;
42332;SDS011;27984;51.476;5.702;2024-01-30T10:14:38;14.57;;;7.35;;
42332;SDS011;27984;51.476;5.702;2024-01-30T10:17:05;14.15;;;7.20;;
42332;SDS011;27984;51.476;5.702;2024-01-30T10:19:31;12.65;;;7.70;;
42332;SDS011;27984;51.476;5.702;2024-01-30T10:21:57;14.02;;;7.50;;
42332;SDS011;27984;51.476;5.702;2024-01-30T10:24:26;15.55;;;7.57;;
42332;SDS011;27984;51.476;5.702;2024-01-30T10:26:54;13.52;;;7.57;;
42332;SDS011;27984;51.476;5.702;2024-01-30T10:29:20;16.60;;;8.02;;
42332;SDS011;27984;51.476;5.702;2024-01-30T10:31:56;15.88;;;8.05;;
42332;SDS011;27984;51.476;5.702;2024-01-30T10:34:23;17.77;;;8.07;;
42332;SDS011;27984;51.476;5.702;2024-01-30T10:36:49;16.25;;;7.45;;
42332;SDS011;27984;51.476;5.702;2024-01-30T10:39:16;14.15;;;7.20;;
42332;SDS011;27984;51.476;5.702;2024-01-30T10:41:43;17.20;;;8.05;;
42332;SDS011;27984;51.476;5.702;2024-01-30T10:44:09;17.48;;;7.45;;
42332;SDS011;27984;51.476;5.702;2024-01-30T10:46:37;14.65;;;7.25;;
42332;SDS011;27984;51.476;5.702;2024-01-30T10:49:04;15.88;;;7.78;;
42332;SDS011;27984;51.476;5.702;2024-01-30T10:51:31;13.30;;;7.25;;
42332;SDS011;27984;51.476;5.702;2024-01-30T10:53:58;18.23;;;7.95;;
42332;SDS011;27984;51.476;5.702;2024-01-30T10:56:24;12.75;;;7.72;;
42332;SDS011;27984;51.476;5.702;2024-01-30T10:58:50;14.20;;;8.10;;
42332;SDS011;27984;51.476;5.702;2024-01-30T11:01:23;13.50;;;7.80;;
42332;SDS011;27984;51.476;5.702;2024-01-30T11:03:53;15.27;;;7.65;;
42332;SDS011;27984;51.476;5.702;2024-01-30T11:06:22;10.57;;;7.47;;
42332;SDS011;27984;51.476;5.702;2024-01-30T11:09:03;16.83;;;7.93;;
42332;SDS011;27984;51.476;5.702;2024-01-30T11:11:47;13.52;;;7.35;;
42332;SDS011;27984;51.476;5.702;2024-01-30T11:14:13;11.50;;;7.28;;
42332;SDS011;27984;51.476;5.702;2024-01-30T11:16:39;14.10;;;7.40;;
42332;SDS011;27984;51.476;5.702;2024-01-30T11:19:05;13.35;;;7.30;;
42332;SDS011;27984;51.476;5.702;2024-01-30T11:21:42;14.85;;;7.63;;
42332;SDS011;27984;51.476;5.702;2024-01-30T11:24:08;17.67;;;7.25;;
42332;SDS011;27984;51.476;5.702;2024-01-30T11:26:34;17.45;;;8.13;;
42332;SDS011;27984;51.476;5.702;2024-01-30T11:29:03;12.00;;;7.03;;
42332;SDS011;27984;51.476;5.702;2024-01-30T11:31:29;15.05;;;6.70;;
42332;SDS011;27984;51.476;5.702;2024-01-30T11:33:56;13.43;;;7.50;;
42332;SDS011;27984;51.476;5.702;2024-01-30T11:36:25;13.10;;;7.53;;
42332;SDS011;27984;51.476;5.702;2024-01-30T11:38:52;14.60;;;8.00;;
42332;SDS011;27984;51.476;5.702;2024-01-30T11:41:17;17.80;;;7.70;;
42332;SDS011;27984;51.476;5.702;2024-01-30T11:43:51;13.90;;;7.85;;
42332;SDS011;27984;51.476;5.702;2024-01-30T11:46:17;12.30;;;7.65;;
42332;SDS011;27984;51.476;5.702;2024-01-30T11:48:43;13.35;;;7.57;;
42332;SDS011;27984;51.476;5.702;2024-01-30T11:51:09;12.38;;;7.18;;
42332;SDS011;27984;51.476;5.702;2024-01-30T11:53:34;15.20;;;6.78;;
42332;SDS011;27984;51.476;5.702;2024-01-30T11:56:01;13.90;;;6.57;;
42332;SDS011;27984;51.476;5.702;2024-01-30T11:58:26;13.80;;;5.95;;
42332;SDS011;27984;51.476;5.702;2024-01-30T12:00:56;15.93;;;6.95;;
42332;SDS011;27984;51.476;5.702;2024-01-30T12:03:22;13.68;;;6.45;;
42332;SDS011;27984;51.476;5.702;2024-01-30T12:05:54;11.35;;;5.90;;
42332;SDS011;27984;51.476;5.702;2024-01-30T12:08:21;11.48;;;5.82;;
42332;SDS011;27984;51.476;5.702;2024-01-30T12:10:54;10.88;;;6.45;;
42332;SDS011;27984;51.476;5.702;2024-01-30T12:13:20;12.68;;;5.65;;
42332;SDS011;27984;51.476;5.702;2024-01-30T12:15:46;13.45;;;5.50;;
42332;SDS011;27984;51.476;5.702;2024-01-30T12:18:12;11.50;;;4.82;;
42332;SDS011;27984;51.476;5.702;2024-01-30T12:20:38;9.27;;;4.60;;
42332;SDS011;27984;51.476;5.702;2024-01-30T12:23:04;11.27;;;5.20;;
42332;SDS011;27984;51.476;5.702;2024-01-30T12:25:30;12.18;;;4.38;;
42332;SDS011;27984;51.476;5.702;2024-01-30T12:27:56;8.50;;;4.45;;
42332;SDS011;27984;51.476;5.702;2024-01-30T12:30:23;8.05;;;4.47;;
42332;SDS011;27984;51.476;5.702;2024-01-30T12:32:49;10.65;;;4.28;;
42332;SDS011;27984;51.476;5.702;2024-01-30T12:35:17;8.52;;;4.00;;
42332;SDS011;27984;51.476;5.702;2024-01-30T12:37:43;9.25;;;4.00;;
42332;SDS011;27984;51.476;5.702;2024-01-30T12:40:13;9.95;;;3.88;;
42332;SDS011;27984;51.476;5.702;2024-01-30T12:42:40;12.93;;;4.00;;
42332;SDS011;27984;51.476;5.702;2024-01-30T12:45:07;10.65;;;4.30;;
42332;SDS011;27984;51.476;5.702;2024-01-30T12:47:33;11.05;;;5.47;;
42332;SDS011;27984;51.476;5.702;2024-01-30T12:49:59;13.15;;;5.38;;
42332;SDS011;27984;51.476;5.702;2024-01-30T12:52:25;10.43;;;5.63;;
42332;SDS011;27984;51.476;5.702;2024-01-30T12:54:52;8.25;;;5.50;;
42332;SDS011;27984;51.476;5.702;2024-01-30T12:57:18;10.77;;;5.55;;
42332;SDS011;27984;51.476;5.702;2024-01-30T12:59:44;11.18;;;5.28;;
42332;SDS011;27984;51.476;5.702;2024-01-30T13:02:11;10.10;;;4.90;;
42332;SDS011;27984;51.476;5.702;2024-01-30T13:04:37;10.05;;;4.50;;
42332;SDS011;27984;51.476;5.702;2024-01-30T13:07:03;6.80;;;3.55;;
42332;SDS011;27984;51.476;5.702;2024-01-30T13:09:29;5.38;;;3.05;;
42332;SDS011;27984;51.476;5.702;2024-01-30T13:11:59;5.38;;;2.10;;
42332;SDS011;27984;51.476;5.702;2024-01-30T13:14:25;6.15;;;2.08;;
42332;SDS011;27984;51.476;5.702;2024-01-30T13:16:51;5.50;;;1.42;;
42332;SDS011;27984;51.476;5.702;2024-01-30T13:19:17;2.17;;;1.10;;
42332;SDS011;27984;51.476;5.702;2024-01-30T13:21:43;3.63;;;1.20;;
42332;SDS011;27984;51.476;5.702;2024-01-30T13:24:09;4.65;;;1.33;;
42332;SDS011;27984;51.476;5.702;2024-01-30T13:26:36;3.05;;;0.80;;
42332;SDS011;27984;51.476;5.702;2024-01-30T13:29:02;6.07;;;0.73;;
42332;SDS011;27984;51.476;5.702;2024-01-30T13:31:28;3.95;;;1.00;;
42332;SDS011;27984;51.476;5.702;2024-01-30T13:33:54;1.92;;;1.10;;
42332;SDS011;27984;51.476;5.702;2024-01-30T13:36:21;3.15;;;0.80;;
42332;SDS011;27984;51.476;5.702;2024-01-30T13:38:47;2.45;;;0.80;;
42332;SDS011;27984;51.476;5.702;2024-01-30T13:41:13;5.15;;;1.08;;
42332;SDS011;27984;51.476;5.702;2024-01-30T13:43:39;1.77;;;0.70;;
42332;SDS011;27984;51.476;5.702;2024-01-30T13:46:05;7.82;;;1.00;;
42332;SDS011;27984;51.476;5.702;2024-01-30T13:48:31;2.45;;;0.90;;
42332;SDS011;27984;51.476;5.702;2024-01-30T13:50:57;4.43;;;0.85;;
42332;SDS011;27984;51.476;5.702;2024-01-30T13:53:23;5.95;;;1.00;;
42332;SDS011;27984;51.476;5.702;2024-01-30T13:55:49;4.75;;;0.88;;
42332;SDS011;27984;51.476;5.702;2024-01-30T13:58:15;2.00;;;0.68;;
42332;SDS011;27984;51.476;5.702;2024-01-30T14:00:41;3.90;;;0.85;;
42332;SDS011;27984;51.476;5.702;2024-01-30T14:03:07;1.80;;;1.00;;
42332;SDS011;27984;51.476;5.702;2024-01-30T14:05:33;7.95;;;0.80;;
42332;SDS011;27984;51.476;5.702;2024-01-30T14:08:00;2.70;;;0.80;;
42332;SDS011;27984;51.476;5.702;2024-01-30T14:10:26;2.85;;;0.82;;
42332;SDS011;27984;51.476;5.702;2024-01-30T14:12:52;2.08;;;0.77;;
42332;SDS011;27984;51.476;5.702;2024-01-30T14:15:18;2.78;;;0.90;;
42332;SDS011;27984;51.476;5.702;2024-01-30T14:17:44;3.53;;;1.00;;
42332;SDS011;27984;51.476;5.702;2024-01-30T14:20:13;3.25;;;1.08;;
42332;SDS011;27984;51.476;5.702;2024-01-30T14:22:39;6.97;;;1.02;;
42332;SDS011;27984;51.476;5.702;2024-01-30T14:25:05;3.28;;;0.90;;
42332;SDS011;27984;51.476;5.702;2024-01-30T14:27:31;9.60;;;1.45;;